sensor_id;sensor_type;location;lat;lon;timestamp;temperature;humidity
5392;DHT22;2719;53.624;9.786;2022-08-03T00:00:53;21.80;99.90
5392;DHT22;2719;53.624;9.786;2022-08-03T00:03:20;21.80;99.90
5392;DHT22;2719;53.624;9.786;2022-08-03T00:05:47;21.70;99.90
5392;DHT22;2719;53.624;9.786;2022-08-03T00:08:13;21.70;99.90
5392;DHT22;2719;53.624;9.786;2022-08-03T00:10:40;21.70;99.90
5392;DHT22;2719;53.624;9.786;2022-08-03T00:13:08;21.70;99.90
5392;DHT22;2719;53.624;9.786;2022-08-03T00:15:37;21.70;99.90
5392;DHT22;2719;53.624;9.786;2022-08-03T00:18:04;21.60;99.90
5392;DHT22;2719;53.624;9.786;2022-08-03T00:20:31;21.60;99.90
5392;DHT22;2719;53.624;9.786;2022-08-03T00:22:58;21.60;99.90
5392;DHT22;2719;53.624;9.786;2022-08-03T00:25:24;21.60;99.90
5392;DHT22;2719;53.624;9.786;2022-08-03T00:27:51;21.60;99.90
5392;DHT22;2719;53.624;9.786;2022-08-03T00:30:19;21.50;99.90
5392;DHT22;2719;53.624;9.786;2022-08-03T00:32:46;21.60;99.90
5392;DHT22;2719;53.624;9.786;2022-08-03T00:35:12;21.50;99.90
5392;DHT22;2719;53.624;9.786;2022-08-03T00:37:39;21.50;99.90
5392;DHT22;2719;53.624;9.786;2022-08-03T00:40:06;21.40;99.90
5392;DHT22;2719;53.624;9.786;2022-08-03T00:42:33;21.40;99.90
5392;DHT22;2719;53.624;9.786;2022-08-03T00:45:00;21.40;99.90
5392;DHT22;2719;53.624;9.786;2022-08-03T00:47:28;21.30;99.90
5392;DHT22;2719;53.624;9.786;2022-08-03T00:49:54;21.30;99.90
5392;DHT22;2719;53.624;9.786;2022-08-03T00:52:21;21.30;99.90
5392;DHT22;2719;53.624;9.786;2022-08-03T00:54:48;21.30;99.90
5392;DHT22;2719;53.624;9.786;2022-08-03T00:57:14;21.30;99.90
5392;DHT22;2719;53.624;9.786;2022-08-03T00:59:41;21.20;99.90
5392;DHT22;2719;53.624;9.786;2022-08-03T01:02:08;21.20;99.90
5392;DHT22;2719;53.624;9.786;2022-08-03T01:04:36;21.20;99.90
5392;DHT22;2719;53.624;9.786;2022-08-03T01:07:06;21.20;99.90
5392;DHT22;2719;53.624;9.786;2022-08-03T01:09:42;21.10;99.90
5392;DHT22;2719;53.624;9.786;2022-08-03T01:12:15;21.10;99.90
5392;DHT22;2719;53.624;9.786;2022-08-03T01:14:50;21.10;99.90
5392;DHT22;2719;53.624;9.786;2022-08-03T01:17:23;21.10;99.90
5392;DHT22;2719;53.624;9.786;2022-08-03T01:20:02;21.00;99.90
5392;DHT22;2719;53.624;9.786;2022-08-03T01:22:49;21.00;99.90
5392;DHT22;2719;53.624;9.786;2022-08-03T01:25:27;21.00;99.90
5392;DHT22;2719;53.624;9.786;2022-08-03T01:28:04;21.00;99.90
5392;DHT22;2719;53.624;9.786;2022-08-03T01:30:35;21.00;99.90
5392;DHT22;2719;53.624;9.786;2022-08-03T01:33:04;21.00;99.90
5392;DHT22;2719;53.624;9.786;2022-08-03T01:35:35;20.90;99.90
5392;DHT22;2719;53.624;9.786;2022-08-03T01:38:06;20.90;99.90
5392;DHT22;2719;53.624;9.786;2022-08-03T01:40:36;20.90;99.90
5392;DHT22;2719;53.624;9.786;2022-08-03T01:43:05;20.80;99.90
5392;DHT22;2719;53.624;9.786;2022-08-03T01:45:35;20.80;99.90
5392;DHT22;2719;53.624;9.786;2022-08-03T01:48:04;20.70;99.90
5392;DHT22;2719;53.624;9.786;2022-08-03T01:50:32;20.70;99.90
5392;DHT22;2719;53.624;9.786;2022-08-03T01:53:00;20.60;99.90
5392;DHT22;2719;53.624;9.786;2022-08-03T01:55:28;20.60;99.90
5392;DHT22;2719;53.624;9.786;2022-08-03T01:57:58;20.60;99.90
5392;DHT22;2719;53.624;9.786;2022-08-03T02:00:26;20.60;99.90
5392;DHT22;2719;53.624;9.786;2022-08-03T02:02:54;20.60;99.90
5392;DHT22;2719;53.624;9.786;2022-08-03T02:05:22;20.60;99.90
5392;DHT22;2719;53.624;9.786;2022-08-03T02:07:50;20.60;99.90
5392;DHT22;2719;53.624;9.786;2022-08-03T02:10:19;20.60;99.90
5392;DHT22;2719;53.624;9.786;2022-08-03T02:12:46;20.60;99.90
5392;DHT22;2719;53.624;9.786;2022-08-03T02:15:15;20.60;99.90
5392;DHT22;2719;53.624;9.786;2022-08-03T02:17:45;20.50;99.90
5392;DHT22;2719;53.624;9.786;2022-08-03T02:20:15;20.50;99.90
5392;DHT22;2719;53.624;9.786;2022-08-03T02:22:43;20.50;99.90
5392;DHT22;2719;53.624;9.786;2022-08-03T02:25:12;20.50;99.90
5392;DHT22;2719;53.624;9.786;2022-08-03T02:27:44;20.50;99.90
5392;DHT22;2719;53.624;9.786;2022-08-03T02:30:12;20.50;99.90
5392;DHT22;2719;53.624;9.786;2022-08-03T02:32:41;20.50;99.90
5392;DHT22;2719;53.624;9.786;2022-08-03T02:35:12;20.50;99.90
5392;DHT22;2719;53.624;9.786;2022-08-03T02:37:43;20.50;99.90
5392;DHT22;2719;53.624;9.786;2022-08-03T02:40:12;20.50;99.90
5392;DHT22;2719;53.624;9.786;2022-08-03T02:42:40;20.40;99.90
5392;DHT22;2719;53.624;9.786;2022-08-03T02:45:10;20.40;99.90
5392;DHT22;2719;53.624;9.786;2022-08-03T02:47:39;20.40;99.90
5392;DHT22;2719;53.624;9.786;2022-08-03T02:50:09;20.40;99.90
5392;DHT22;2719;53.624;9.786;2022-08-03T02:52:36;20.40;99.90
5392;DHT22;2719;53.624;9.786;2022-08-03T02:55:06;20.40;99.90
5392;DHT22;2719;53.624;9.786;2022-08-03T02:57:35;20.40;99.90
5392;DHT22;2719;53.624;9.786;2022-08-03T03:00:04;20.40;99.90
5392;DHT22;2719;53.624;9.786;2022-08-03T03:02:31;20.40;99.90
5392;DHT22;2719;53.624;9.786;2022-08-03T03:04:58;20.40;99.90
5392;DHT22;2719;53.624;9.786;2022-08-03T03:07:26;20.30;99.90
5392;DHT22;2719;53.624;9.786;2022-08-03T03:09:54;20.30;99.90
5392;DHT22;2719;53.624;9.786;2022-08-03T03:12:23;20.30;99.90
5392;DHT22;2719;53.624;9.786;2022-08-03T03:14:51;20.30;99.90
5392;DHT22;2719;53.624;9.786;2022-08-03T03:17:18;20.30;99.90
5392;DHT22;2719;53.624;9.786;2022-08-03T03:19:46;20.30;99.90
5392;DHT22;2719;53.624;9.786;2022-08-03T03:22:16;20.40;99.90
5392;DHT22;2719;53.624;9.786;2022-08-03T03:24:43;20.30;99.90
5392;DHT22;2719;53.624;9.786;2022-08-03T03:27:10;20.30;99.90
5392;DHT22;2719;53.624;9.786;2022-08-03T03:29:40;20.30;99.90
5392;DHT22;2719;53.624;9.786;2022-08-03T03:32:07;20.30;99.90
5392;DHT22;2719;53.624;9.786;2022-08-03T03:34:35;20.30;99.90
5392;DHT22;2719;53.624;9.786;2022-08-03T03:37:02;20.30;99.90
5392;DHT22;2719;53.624;9.786;2022-08-03T03:39:30;20.30;99.90
5392;DHT22;2719;53.624;9.786;2022-08-03T03:41:57;20.20;99.90
5392;DHT22;2719;53.624;9.786;2022-08-03T03:44:26;20.20;99.90
5392;DHT22;2719;53.624;9.786;2022-08-03T03:46:54;20.20;99.90
5392;DHT22;2719;53.624;9.786;2022-08-03T03:49:21;20.20;99.90
5392;DHT22;2719;53.624;9.786;2022-08-03T03:51:50;20.20;99.90
5392;DHT22;2719;53.624;9.786;2022-08-03T03:54:17;20.20;99.90
5392;DHT22;2719;53.624;9.786;2022-08-03T03:56:44;20.20;99.90
5392;DHT22;2719;53.624;9.786;2022-08-03T03:59:10;20.20;99.90
5392;DHT22;2719;53.624;9.786;2022-08-03T04:01:37;20.20;99.90
5392;DHT22;2719;53.624;9.786;2022-08-03T04:04:05;20.20;99.90
5392;DHT22;2719;53.624;9.786;2022-08-03T04:06:46;20.20;99.90
5392;DHT22;2719;53.624;9.786;2022-08-03T04:09:31;20.20;99.90
5392;DHT22;2719;53.624;9.786;2022-08-03T04:12:13;20.30;99.90
5392;DHT22;2719;53.624;9.786;2022-08-03T04:14:41;20.20;99.90
5392;DHT22;2719;53.624;9.786;2022-08-03T04:17:12;20.20;99.90
5392;DHT22;2719;53.624;9.786;2022-08-03T04:19:44;20.20;99.90
5392;DHT22;2719;53.624;9.786;2022-08-03T04:22:17;20.30;99.90
5392;DHT22;2719;53.624;9.786;2022-08-03T04:24:47;20.30;99.90
5392;DHT22;2719;53.624;9.786;2022-08-03T04:27:18;20.20;99.90
5392;DHT22;2719;53.624;9.786;2022-08-03T04:29:48;20.20;99.90
5392;DHT22;2719;53.624;9.786;2022-08-03T04:32:17;20.20;99.90
5392;DHT22;2719;53.624;9.786;2022-08-03T04:34:46;20.30;99.90
5392;DHT22;2719;53.624;9.786;2022-08-03T04:37:16;20.30;99.90
5392;DHT22;2719;53.624;9.786;2022-08-03T04:39:48;20.30;99.90
5392;DHT22;2719;53.624;9.786;2022-08-03T04:42:15;20.30;99.90
5392;DHT22;2719;53.624;9.786;2022-08-03T04:44:44;20.30;99.90
5392;DHT22;2719;53.624;9.786;2022-08-03T04:47:12;20.30;99.90
5392;DHT22;2719;53.624;9.786;2022-08-03T04:49:39;20.30;99.90
5392;DHT22;2719;53.624;9.786;2022-08-03T04:52:07;20.40;99.90
5392;DHT22;2719;53.624;9.786;2022-08-03T04:54:38;20.40;99.90
5392;DHT22;2719;53.624;9.786;2022-08-03T04:57:06;20.40;99.90
5392;DHT22;2719;53.624;9.786;2022-08-03T04:59:32;20.40;99.90
5392;DHT22;2719;53.624;9.786;2022-08-03T05:01:59;20.40;99.90
5392;DHT22;2719;53.624;9.786;2022-08-03T05:04:26;20.50;99.90
5392;DHT22;2719;53.624;9.786;2022-08-03T05:06:52;20.50;99.90
5392;DHT22;2719;53.624;9.786;2022-08-03T05:09:20;20.60;99.90
5392;DHT22;2719;53.624;9.786;2022-08-03T05:11:47;20.60;99.90
5392;DHT22;2719;53.624;9.786;2022-08-03T05:14:14;20.60;99.90
5392;DHT22;2719;53.624;9.786;2022-08-03T05:16:41;20.70;99.90
5392;DHT22;2719;53.624;9.786;2022-08-03T05:19:07;20.70;99.90
5392;DHT22;2719;53.624;9.786;2022-08-03T05:21:34;20.80;99.90
5392;DHT22;2719;53.624;9.786;2022-08-03T05:24:01;20.80;99.90
5392;DHT22;2719;53.624;9.786;2022-08-03T05:26:29;20.80;99.90
5392;DHT22;2719;53.624;9.786;2022-08-03T05:28:55;20.90;99.90
5392;DHT22;2719;53.624;9.786;2022-08-03T05:31:22;21.00;99.90
5392;DHT22;2719;53.624;9.786;2022-08-03T05:33:49;20.90;99.90
5392;DHT22;2719;53.624;9.786;2022-08-03T05:36:15;21.00;99.90
5392;DHT22;2719;53.624;9.786;2022-08-03T05:38:42;21.10;99.90
5392;DHT22;2719;53.624;9.786;2022-08-03T05:41:09;21.10;99.90
5392;DHT22;2719;53.624;9.786;2022-08-03T05:43:37;21.20;99.90
5392;DHT22;2719;53.624;9.786;2022-08-03T05:46:03;21.30;99.90
5392;DHT22;2719;53.624;9.786;2022-08-03T05:48:30;21.30;99.90
5392;DHT22;2719;53.624;9.786;2022-08-03T05:50:57;21.40;99.90
5392;DHT22;2719;53.624;9.786;2022-08-03T05:53:23;21.30;99.90
5392;DHT22;2719;53.624;9.786;2022-08-03T05:55:50;21.40;99.90
5392;DHT22;2719;53.624;9.786;2022-08-03T05:58:17;21.50;99.90
5392;DHT22;2719;53.624;9.786;2022-08-03T06:00:45;21.60;99.90
5392;DHT22;2719;53.624;9.786;2022-08-03T06:03:12;21.70;99.90
5392;DHT22;2719;53.624;9.786;2022-08-03T06:05:38;21.80;99.90
5392;DHT22;2719;53.624;9.786;2022-08-03T06:08:05;21.90;99.90
5392;DHT22;2719;53.624;9.786;2022-08-03T06:10:32;22.00;99.90
5392;DHT22;2719;53.624;9.786;2022-08-03T06:12:58;22.00;99.90
5392;DHT22;2719;53.624;9.786;2022-08-03T06:15:25;22.10;99.90
5392;DHT22;2719;53.624;9.786;2022-08-03T06:17:53;22.10;99.90
5392;DHT22;2719;53.624;9.786;2022-08-03T06:20:21;22.20;99.90
5392;DHT22;2719;53.624;9.786;2022-08-03T06:22:48;22.30;99.90
5392;DHT22;2719;53.624;9.786;2022-08-03T06:25:15;22.30;99.90
5392;DHT22;2719;53.624;9.786;2022-08-03T06:27:42;22.50;99.90
5392;DHT22;2719;53.624;9.786;2022-08-03T06:30:10;22.50;99.90
5392;DHT22;2719;53.624;9.786;2022-08-03T06:32:38;22.60;99.90
5392;DHT22;2719;53.624;9.786;2022-08-03T06:35:07;22.80;99.90
5392;DHT22;2719;53.624;9.786;2022-08-03T06:37:41;22.80;99.90
5392;DHT22;2719;53.624;9.786;2022-08-03T06:40:10;23.00;99.90
5392;DHT22;2719;53.624;9.786;2022-08-03T06:42:36;23.00;99.90
5392;DHT22;2719;53.624;9.786;2022-08-03T06:45:04;23.10;99.90
5392;DHT22;2719;53.624;9.786;2022-08-03T06:47:31;23.20;99.90
5392;DHT22;2719;53.624;9.786;2022-08-03T06:49:57;23.20;99.90
5392;DHT22;2719;53.624;9.786;2022-08-03T06:52:25;23.30;99.90
5392;DHT22;2719;53.624;9.786;2022-08-03T06:54:52;23.30;99.90
5392;DHT22;2719;53.624;9.786;2022-08-03T06:57:18;23.40;99.90
5392;DHT22;2719;53.624;9.786;2022-08-03T06:59:45;23.50;99.90
5392;DHT22;2719;53.624;9.786;2022-08-03T07:02:12;23.60;99.90
5392;DHT22;2719;53.624;9.786;2022-08-03T07:04:38;23.70;99.90
5392;DHT22;2719;53.624;9.786;2022-08-03T07:07:05;23.70;99.90
5392;DHT22;2719;53.624;9.786;2022-08-03T07:09:33;23.80;99.90
5392;DHT22;2719;53.624;9.786;2022-08-03T07:11:59;23.90;99.90
5392;DHT22;2719;53.624;9.786;2022-08-03T07:14:27;24.00;99.90
5392;DHT22;2719;53.624;9.786;2022-08-03T07:16:53;24.00;99.90
5392;DHT22;2719;53.624;9.786;2022-08-03T07:19:20;24.20;99.90
5392;DHT22;2719;53.624;9.786;2022-08-03T07:21:47;24.10;99.90
5392;DHT22;2719;53.624;9.786;2022-08-03T07:24:13;24.20;99.90
5392;DHT22;2719;53.624;9.786;2022-08-03T07:26:41;24.20;99.90
5392;DHT22;2719;53.624;9.786;2022-08-03T07:29:08;24.20;99.90
5392;DHT22;2719;53.624;9.786;2022-08-03T07:31:35;24.30;99.90
5392;DHT22;2719;53.624;9.786;2022-08-03T07:34:01;24.40;99.90
5392;DHT22;2719;53.624;9.786;2022-08-03T07:36:28;24.40;99.90
5392;DHT22;2719;53.624;9.786;2022-08-03T07:38:56;24.50;99.90
5392;DHT22;2719;53.624;9.786;2022-08-03T07:41:23;24.60;99.90
5392;DHT22;2719;53.624;9.786;2022-08-03T07:43:51;24.60;99.90
5392;DHT22;2719;53.624;9.786;2022-08-03T07:46:18;24.60;99.90
5392;DHT22;2719;53.624;9.786;2022-08-03T07:48:44;24.70;99.90
5392;DHT22;2719;53.624;9.786;2022-08-03T07:51:11;24.70;99.90
5392;DHT22;2719;53.624;9.786;2022-08-03T07:53:37;24.60;99.90
5392;DHT22;2719;53.624;9.786;2022-08-03T07:56:04;24.60;99.90
5392;DHT22;2719;53.624;9.786;2022-08-03T07:58:31;24.70;99.90
5392;DHT22;2719;53.624;9.786;2022-08-03T08:00:59;24.70;99.90
5392;DHT22;2719;53.624;9.786;2022-08-03T08:03:26;24.90;99.90
5392;DHT22;2719;53.624;9.786;2022-08-03T08:05:53;24.90;99.90
5392;DHT22;2719;53.624;9.786;2022-08-03T08:08:19;25.00;99.90
5392;DHT22;2719;53.624;9.786;2022-08-03T08:10:46;25.00;99.90
5392;DHT22;2719;53.624;9.786;2022-08-03T08:13:13;25.00;99.90
5392;DHT22;2719;53.624;9.786;2022-08-03T08:15:40;25.00;99.90
5392;DHT22;2719;53.624;9.786;2022-08-03T08:18:08;25.10;99.90
5392;DHT22;2719;53.624;9.786;2022-08-03T08:20:35;25.20;99.90
5392;DHT22;2719;53.624;9.786;2022-08-03T08:23:04;25.20;99.90
5392;DHT22;2719;53.624;9.786;2022-08-03T08:25:31;25.20;99.90
5392;DHT22;2719;53.624;9.786;2022-08-03T08:27:59;25.30;99.90
5392;DHT22;2719;53.624;9.786;2022-08-03T08:30:28;25.30;99.90
5392;DHT22;2719;53.624;9.786;2022-08-03T08:32:55;25.30;99.90
5392;DHT22;2719;53.624;9.786;2022-08-03T08:35:23;25.40;99.90
5392;DHT22;2719;53.624;9.786;2022-08-03T08:37:50;25.40;99.90
5392;DHT22;2719;53.624;9.786;2022-08-03T08:40:19;25.40;99.90
5392;DHT22;2719;53.624;9.786;2022-08-03T08:42:47;25.40;99.90
5392;DHT22;2719;53.624;9.786;2022-08-03T08:45:13;25.40;99.90
5392;DHT22;2719;53.624;9.786;2022-08-03T08:47:44;25.40;99.90
5392;DHT22;2719;53.624;9.786;2022-08-03T08:50:11;25.40;99.90
5392;DHT22;2719;53.624;9.786;2022-08-03T08:52:40;25.50;99.90
5392;DHT22;2719;53.624;9.786;2022-08-03T08:55:09;25.50;99.90
5392;DHT22;2719;53.624;9.786;2022-08-03T08:57:38;25.60;99.90
5392;DHT22;2719;53.624;9.786;2022-08-03T09:00:09;25.60;99.90
5392;DHT22;2719;53.624;9.786;2022-08-03T09:02:39;25.70;99.90
5392;DHT22;2719;53.624;9.786;2022-08-03T09:05:09;25.70;99.90
5392;DHT22;2719;53.624;9.786;2022-08-03T09:07:36;25.70;99.90
5392;DHT22;2719;53.624;9.786;2022-08-03T09:10:06;25.70;99.90
5392;DHT22;2719;53.624;9.786;2022-08-03T09:12:37;25.70;99.90
5392;DHT22;2719;53.624;9.786;2022-08-03T09:15:18;25.70;99.90
5392;DHT22;2719;53.624;9.786;2022-08-03T09:17:46;25.80;99.90
5392;DHT22;2719;53.624;9.786;2022-08-03T09:20:13;25.80;99.90
5392;DHT22;2719;53.624;9.786;2022-08-03T09:22:54;25.80;99.90
5392;DHT22;2719;53.624;9.786;2022-08-03T09:25:31;25.90;99.90
5392;DHT22;2719;53.624;9.786;2022-08-03T09:28:06;26.00;99.90
5392;DHT22;2719;53.624;9.786;2022-08-03T09:30:33;26.00;99.90
5392;DHT22;2719;53.624;9.786;2022-08-03T09:33:00;26.00;99.90
5392;DHT22;2719;53.624;9.786;2022-08-03T09:35:27;26.00;99.90
5392;DHT22;2719;53.624;9.786;2022-08-03T09:38:08;26.00;99.90
5392;DHT22;2719;53.624;9.786;2022-08-03T09:40:36;26.10;99.90
5392;DHT22;2719;53.624;9.786;2022-08-03T09:43:03;26.20;99.90
5392;DHT22;2719;53.624;9.786;2022-08-03T09:45:32;26.20;99.90
5392;DHT22;2719;53.624;9.786;2022-08-03T09:48:19;26.30;99.90
5392;DHT22;2719;53.624;9.786;2022-08-03T09:50:49;26.40;99.90
5392;DHT22;2719;53.624;9.786;2022-08-03T09:53:17;26.50;99.90
5392;DHT22;2719;53.624;9.786;2022-08-03T09:55:51;26.50;99.90
5392;DHT22;2719;53.624;9.786;2022-08-03T09:58:19;26.50;99.90
5392;DHT22;2719;53.624;9.786;2022-08-03T10:00:54;26.40;99.90
5392;DHT22;2719;53.624;9.786;2022-08-03T10:03:22;26.40;99.90
5392;DHT22;2719;53.624;9.786;2022-08-03T10:05:49;26.30;99.90
5392;DHT22;2719;53.624;9.786;2022-08-03T10:08:16;26.40;99.90
5392;DHT22;2719;53.624;9.786;2022-08-03T10:10:45;26.50;99.90
5392;DHT22;2719;53.624;9.786;2022-08-03T10:13:16;26.50;99.90
5392;DHT22;2719;53.624;9.786;2022-08-03T10:15:43;26.60;99.90
5392;DHT22;2719;53.624;9.786;2022-08-03T10:18:10;26.60;99.90
5392;DHT22;2719;53.624;9.786;2022-08-03T10:20:39;26.70;99.90
5392;DHT22;2719;53.624;9.786;2022-08-03T10:23:07;26.80;99.90
5392;DHT22;2719;53.624;9.786;2022-08-03T10:25:35;26.80;99.90
5392;DHT22;2719;53.624;9.786;2022-08-03T10:28:05;26.80;99.90
5392;DHT22;2719;53.624;9.786;2022-08-03T10:30:35;26.80;99.90
5392;DHT22;2719;53.624;9.786;2022-08-03T10:33:08;26.90;99.90
5392;DHT22;2719;53.624;9.786;2022-08-03T10:35:36;27.00;99.90
5392;DHT22;2719;53.624;9.786;2022-08-03T10:38:08;27.00;99.90
5392;DHT22;2719;53.624;9.786;2022-08-03T10:40:37;27.00;99.90
5392;DHT22;2719;53.624;9.786;2022-08-03T10:43:09;27.10;99.90
5392;DHT22;2719;53.624;9.786;2022-08-03T10:45:40;27.10;99.90
5392;DHT22;2719;53.624;9.786;2022-08-03T10:48:07;27.30;99.90
5392;DHT22;2719;53.624;9.786;2022-08-03T10:50:34;27.40;99.90
5392;DHT22;2719;53.624;9.786;2022-08-03T10:53:03;27.40;99.90
5392;DHT22;2719;53.624;9.786;2022-08-03T10:55:32;27.40;99.90
5392;DHT22;2719;53.624;9.786;2022-08-03T10:58:47;27.50;99.90
5392;DHT22;2719;53.624;9.786;2022-08-03T11:01:17;27.50;99.90
5392;DHT22;2719;53.624;9.786;2022-08-03T11:04:14;27.60;99.90
5392;DHT22;2719;53.624;9.786;2022-08-03T11:06:43;27.60;99.90
5392;DHT22;2719;53.624;9.786;2022-08-03T11:09:15;27.60;99.90
5392;DHT22;2719;53.624;9.786;2022-08-03T11:11:43;27.60;99.90
5392;DHT22;2719;53.624;9.786;2022-08-03T11:14:11;27.60;99.90
5392;DHT22;2719;53.624;9.786;2022-08-03T11:16:41;27.60;99.90
5392;DHT22;2719;53.624;9.786;2022-08-03T11:19:10;27.80;99.90
5392;DHT22;2719;53.624;9.786;2022-08-03T11:21:54;27.80;99.90
5392;DHT22;2719;53.624;9.786;2022-08-03T11:25:00;27.90;99.70
5392;DHT22;2719;53.624;9.786;2022-08-03T11:27:29;27.90;99.40
5392;DHT22;2719;53.624;9.786;2022-08-03T11:30:01;27.80;99.10
5392;DHT22;2719;53.624;9.786;2022-08-03T11:32:51;27.80;98.80
5392;DHT22;2719;53.624;9.786;2022-08-03T11:35:20;27.90;98.80
5392;DHT22;2719;53.624;9.786;2022-08-03T11:38:07;28.00;99.00
5392;DHT22;2719;53.624;9.786;2022-08-03T11:40:42;28.10;98.20
5392;DHT22;2719;53.624;9.786;2022-08-03T11:43:42;28.10;97.10
5392;DHT22;2719;53.624;9.786;2022-08-03T11:46:10;28.20;97.40
5392;DHT22;2719;53.624;9.786;2022-08-03T11:48:44;28.30;97.40
5392;DHT22;2719;53.624;9.786;2022-08-03T11:51:19;28.40;97.50
5392;DHT22;2719;53.624;9.786;2022-08-03T11:53:46;28.40;97.20
5392;DHT22;2719;53.624;9.786;2022-08-03T11:56:16;28.60;97.50
5392;DHT22;2719;53.624;9.786;2022-08-03T11:58:45;28.60;97.20
5392;DHT22;2719;53.624;9.786;2022-08-03T12:01:13;28.60;97.80
5392;DHT22;2719;53.624;9.786;2022-08-03T12:03:43;28.60;96.90
5392;DHT22;2719;53.624;9.786;2022-08-03T12:06:11;28.60;98.00
5392;DHT22;2719;53.624;9.786;2022-08-03T12:08:39;28.70;97.40
5392;DHT22;2719;53.624;9.786;2022-08-03T12:11:07;28.80;97.30
5392;DHT22;2719;53.624;9.786;2022-08-03T12:13:39;28.80;96.90
5392;DHT22;2719;53.624;9.786;2022-08-03T12:16:06;28.80;97.20
5392;DHT22;2719;53.624;9.786;2022-08-03T12:18:34;28.80;97.10
5392;DHT22;2719;53.624;9.786;2022-08-03T12:21:07;28.80;96.50
5392;DHT22;2719;53.624;9.786;2022-08-03T12:23:34;28.70;95.80
5392;DHT22;2719;53.624;9.786;2022-08-03T12:26:02;28.70;95.80
5392;DHT22;2719;53.624;9.786;2022-08-03T12:28:29;28.80;96.40
5392;DHT22;2719;53.624;9.786;2022-08-03T12:31:00;28.90;97.70
5392;DHT22;2719;53.624;9.786;2022-08-03T12:33:27;29.00;96.70
5392;DHT22;2719;53.624;9.786;2022-08-03T12:36:06;29.30;97.40
5392;DHT22;2719;53.624;9.786;2022-08-03T12:38:35;29.50;95.60
5392;DHT22;2719;53.624;9.786;2022-08-03T12:41:05;29.60;94.80
5392;DHT22;2719;53.624;9.786;2022-08-03T12:43:33;29.70;94.30
5392;DHT22;2719;53.624;9.786;2022-08-03T12:46:13;29.90;93.70
5392;DHT22;2719;53.624;9.786;2022-08-03T12:49:01;30.00;93.80
5392;DHT22;2719;53.624;9.786;2022-08-03T12:51:31;30.20;93.80
5392;DHT22;2719;53.624;9.786;2022-08-03T12:53:58;30.30;93.80
5392;DHT22;2719;53.624;9.786;2022-08-03T12:56:25;30.30;93.20
5392;DHT22;2719;53.624;9.786;2022-08-03T12:58:52;30.40;93.80
5392;DHT22;2719;53.624;9.786;2022-08-03T13:01:19;30.40;93.00
5392;DHT22;2719;53.624;9.786;2022-08-03T13:03:50;30.60;93.10
5392;DHT22;2719;53.624;9.786;2022-08-03T13:06:19;30.70;93.40
5392;DHT22;2719;53.624;9.786;2022-08-03T13:08:48;30.70;93.10
5392;DHT22;2719;53.624;9.786;2022-08-03T13:11:23;30.60;92.90
5392;DHT22;2719;53.624;9.786;2022-08-03T13:13:51;30.60;92.60
5392;DHT22;2719;53.624;9.786;2022-08-03T13:16:18;30.50;92.50
5392;DHT22;2719;53.624;9.786;2022-08-03T13:18:46;30.70;93.00
5392;DHT22;2719;53.624;9.786;2022-08-03T13:21:14;30.90;93.00
5392;DHT22;2719;53.624;9.786;2022-08-03T13:23:41;30.90;93.00
5392;DHT22;2719;53.624;9.786;2022-08-03T13:26:09;30.90;92.60
5392;DHT22;2719;53.624;9.786;2022-08-03T13:28:36;31.00;91.60
5392;DHT22;2719;53.624;9.786;2022-08-03T13:31:03;31.20;91.60
5392;DHT22;2719;53.624;9.786;2022-08-03T13:33:30;31.20;91.10
5392;DHT22;2719;53.624;9.786;2022-08-03T13:35:57;31.20;91.00
5392;DHT22;2719;53.624;9.786;2022-08-03T13:38:23;31.30;91.10
5392;DHT22;2719;53.624;9.786;2022-08-03T13:40:51;31.30;90.70
5392;DHT22;2719;53.624;9.786;2022-08-03T13:43:19;31.20;91.00
5392;DHT22;2719;53.624;9.786;2022-08-03T13:45:46;31.30;91.10
5392;DHT22;2719;53.624;9.786;2022-08-03T13:48:13;31.40;91.20
5392;DHT22;2719;53.624;9.786;2022-08-03T13:50:40;31.60;91.10
5392;DHT22;2719;53.624;9.786;2022-08-03T13:53:06;31.70;91.20
5392;DHT22;2719;53.624;9.786;2022-08-03T13:55:33;31.50;91.40
5392;DHT22;2719;53.624;9.786;2022-08-03T13:58:00;31.60;91.30
5392;DHT22;2719;53.624;9.786;2022-08-03T14:00:28;31.50;91.30
5392;DHT22;2719;53.624;9.786;2022-08-03T14:02:58;31.50;92.00
5392;DHT22;2719;53.624;9.786;2022-08-03T14:05:25;31.70;91.10
5392;DHT22;2719;53.624;9.786;2022-08-03T14:07:52;31.80;90.70
5392;DHT22;2719;53.624;9.786;2022-08-03T14:10:18;31.90;90.70
5392;DHT22;2719;53.624;9.786;2022-08-03T14:12:45;32.00;91.30
5392;DHT22;2719;53.624;9.786;2022-08-03T14:15:12;32.00;90.40
5392;DHT22;2719;53.624;9.786;2022-08-03T14:17:40;31.90;90.10
5392;DHT22;2719;53.624;9.786;2022-08-03T14:20:08;32.00;91.90
5392;DHT22;2719;53.624;9.786;2022-08-03T14:22:37;32.00;90.40
5392;DHT22;2719;53.624;9.786;2022-08-03T14:25:04;31.90;92.20
5392;DHT22;2719;53.624;9.786;2022-08-03T14:27:31;32.00;90.60
5392;DHT22;2719;53.624;9.786;2022-08-03T14:29:57;32.00;90.80
5392;DHT22;2719;53.624;9.786;2022-08-03T14:32:25;32.00;90.70
5392;DHT22;2719;53.624;9.786;2022-08-03T14:34:53;32.00;90.40
5392;DHT22;2719;53.624;9.786;2022-08-03T14:37:20;32.10;90.50
5392;DHT22;2719;53.624;9.786;2022-08-03T14:39:47;32.10;90.00
5392;DHT22;2719;53.624;9.786;2022-08-03T14:42:13;32.30;89.40
5392;DHT22;2719;53.624;9.786;2022-08-03T14:44:41;32.20;89.60
5392;DHT22;2719;53.624;9.786;2022-08-03T14:47:07;32.20;89.20
5392;DHT22;2719;53.624;9.786;2022-08-03T14:49:34;32.20;88.70
5392;DHT22;2719;53.624;9.786;2022-08-03T14:52:02;32.20;88.70
5392;DHT22;2719;53.624;9.786;2022-08-03T14:54:29;32.20;88.30
5392;DHT22;2719;53.624;9.786;2022-08-03T14:56:56;32.20;87.90
5392;DHT22;2719;53.624;9.786;2022-08-03T14:59:23;32.30;88.10
5392;DHT22;2719;53.624;9.786;2022-08-03T15:01:50;32.20;87.50
5392;DHT22;2719;53.624;9.786;2022-08-03T15:04:16;32.00;89.00
5392;DHT22;2719;53.624;9.786;2022-08-03T15:06:43;32.10;88.20
5392;DHT22;2719;53.624;9.786;2022-08-03T15:09:11;32.20;88.60
5392;DHT22;2719;53.624;9.786;2022-08-03T15:11:37;32.20;87.90
5392;DHT22;2719;53.624;9.786;2022-08-03T15:14:04;32.10;89.60
5392;DHT22;2719;53.624;9.786;2022-08-03T15:16:31;32.00;87.60
5392;DHT22;2719;53.624;9.786;2022-08-03T15:18:57;32.00;90.10
5392;DHT22;2719;53.624;9.786;2022-08-03T15:21:25;32.10;88.80
5392;DHT22;2719;53.624;9.786;2022-08-03T15:23:51;32.10;89.50
5392;DHT22;2719;53.624;9.786;2022-08-03T15:26:19;32.00;90.20
5392;DHT22;2719;53.624;9.786;2022-08-03T15:28:46;31.80;88.90
5392;DHT22;2719;53.624;9.786;2022-08-03T15:31:13;31.70;90.00
5392;DHT22;2719;53.624;9.786;2022-08-03T15:33:39;31.60;90.10
5392;DHT22;2719;53.624;9.786;2022-08-03T15:36:06;31.80;90.20
5392;DHT22;2719;53.624;9.786;2022-08-03T15:38:33;32.00;89.30
5392;DHT22;2719;53.624;9.786;2022-08-03T15:40:59;32.00;88.40
5392;DHT22;2719;53.624;9.786;2022-08-03T15:43:27;31.90;88.90
5392;DHT22;2719;53.624;9.786;2022-08-03T15:45:54;31.80;90.10
5392;DHT22;2719;53.624;9.786;2022-08-03T15:48:21;31.80;89.70
5392;DHT22;2719;53.624;9.786;2022-08-03T15:50:49;31.80;88.80
5392;DHT22;2719;53.624;9.786;2022-08-03T15:53:16;31.80;89.80
5392;DHT22;2719;53.624;9.786;2022-08-03T15:55:43;31.90;90.00
5392;DHT22;2719;53.624;9.786;2022-08-03T15:58:09;31.80;88.60
5392;DHT22;2719;53.624;9.786;2022-08-03T16:00:38;31.80;88.00
5392;DHT22;2719;53.624;9.786;2022-08-03T16:03:05;31.80;88.40
5392;DHT22;2719;53.624;9.786;2022-08-03T16:05:32;31.80;88.40
5392;DHT22;2719;53.624;9.786;2022-08-03T16:07:58;31.70;88.10
5392;DHT22;2719;53.624;9.786;2022-08-03T16:10:25;31.60;87.90
5392;DHT22;2719;53.624;9.786;2022-08-03T16:12:54;31.50;88.40